createdAt,value
2022-12-27T00:00:15.890Z,73.98
2022-12-27T00:02:44.936Z,73.93
2022-12-27T00:05:15.043Z,73.83
2022-12-27T00:07:45.103Z,73.85
2022-12-27T00:10:13.942Z,74.05
2022-12-27T00:12:42.792Z,73.65
2022-12-27T00:15:11.705Z,73.83
2022-12-27T00:17:41.413Z,73.90
2022-12-27T00:20:11.842Z,74.02
2022-12-27T00:22:41.713Z,73.96
2022-12-27T00:25:11.582Z,73.79
2022-12-27T00:27:41.923Z,73.90
2022-12-27T00:30:11.526Z,73.67
2022-12-27T00:32:41.192Z,73.61
2022-12-27T00:35:10.397Z,73.83
2022-12-27T00:37:39.485Z,73.97
2022-12-27T00:40:08.898Z,74.26
2022-12-27T00:42:38.754Z,74.09
2022-12-27T00:45:09.873Z,74.01
2022-12-27T00:47:38.681Z,74.12
2022-12-27T00:50:07.809Z,74.09
2022-12-27T00:52:36.720Z,74.04
2022-12-27T00:55:06.416Z,74.29
2022-12-27T00:57:35.384Z,74.03
2022-12-27T01:00:10.440Z,74.07
2022-12-27T01:02:40.355Z,74.12
2022-12-27T01:05:09.454Z,73.85
2022-12-27T01:07:38.308Z,74.01
2022-12-27T01:10:07.569Z,74.05
2022-12-27T01:12:37.027Z,74.10
2022-12-27T01:15:07.799Z,74.15
2022-12-27T01:17:36.814Z,73.99
2022-12-27T01:20:06.533Z,73.99
2022-12-27T01:22:35.327Z,74.08
2022-12-27T01:25:05.230Z,74.04
2022-12-27T01:27:34.048Z,74.09
2022-12-27T01:30:04.073Z,73.94
2022-12-27T01:32:36.261Z,74.12
2022-12-27T01:35:05.487Z,74.11
2022-12-27T01:37:34.309Z,74.06
2022-12-27T01:40:03.454Z,73.69
2022-12-27T01:42:50.799Z,73.87
2022-12-27T01:45:28.420Z,73.94
2022-12-27T01:48:10.272Z,74.06
2022-12-27T01:50:50.498Z,74.12
2022-12-27T01:53:22.856Z,74.25
2022-12-27T01:55:57.009Z,74.04
2022-12-27T01:58:33.896Z,74.11
2022-12-27T02:01:05.738Z,74.16
2022-12-27T02:03:46.545Z,74.03
2022-12-27T02:06:16.838Z,74.02
2022-12-27T02:08:57.353Z,74.04
2022-12-27T02:11:53.104Z,74.29
2022-12-27T02:14:28.603Z,74.07
2022-12-27T02:17:00.673Z,74.34
2022-12-27T02:20:01.959Z,74.39
2022-12-27T02:23:01.394Z,74.18
2022-12-27T02:25:51.948Z,74.30
2022-12-27T02:28:42.417Z,74.56
2022-12-27T02:31:38.900Z,74.59
2022-12-27T02:34:17.841Z,74.76
2022-12-27T02:36:47.802Z,74.36
2022-12-27T02:39:18.875Z,74.56
2022-12-27T02:42:08.226Z,74.30
2022-12-27T02:44:56.273Z,74.29
2022-12-27T02:47:44.203Z,74.31
2022-12-27T02:50:34.022Z,74.34
2022-12-27T02:53:40.096Z,74.91
2022-12-27T02:56:47.486Z,74.63
2022-12-27T03:00:20.007Z,74.77
2022-12-27T03:03:29.272Z,74.92
2022-12-27T03:06:48.744Z,74.91
2022-12-27T03:10:07.671Z,74.65
2022-12-27T03:13:03.087Z,74.73
2022-12-27T03:15:56.075Z,75.02
2022-12-27T03:18:49.611Z,75.35
2022-12-27T03:22:04.341Z,75.20
2022-12-27T03:24:56.515Z,75.03
2022-12-27T03:27:32.787Z,74.84
2022-12-27T03:30:21.873Z,74.74
2022-12-27T03:33:14.338Z,75.16
2022-12-27T03:36:13.450Z,74.68
2022-12-27T03:38:52.902Z,74.80
2022-12-27T03:41:48.642Z,75.04
2022-12-27T03:44:26.443Z,75.23
2022-12-27T03:47:15.259Z,75.34
2022-12-27T03:49:55.524Z,75.40
2022-12-27T03:52:34.571Z,75.30
2022-12-27T03:55:03.893Z,74.99
2022-12-27T03:57:32.902Z,75.00
2022-12-27T04:00:01.848Z,74.88
2022-12-27T04:02:32.505Z,74.65
2022-12-27T04:05:01.861Z,75.27
2022-12-27T04:07:31.379Z,75.58
2022-12-27T04:10:18.835Z,75.68
2022-12-27T04:13:06.459Z,75.50
2022-12-27T04:15:53.787Z,75.32
2022-12-27T04:18:41.127Z,75.58
2022-12-27T04:21:29.424Z,75.42
2022-12-27T04:24:16.687Z,75.47
2022-12-27T04:27:03.963Z,75.93
2022-12-27T04:29:51.490Z,75.83
2022-12-27T04:32:38.967Z,75.46
2022-12-27T04:35:08.622Z,75.24
2022-12-27T04:37:37.430Z,75.30
2022-12-27T04:40:25.344Z,75.67
2022-12-27T04:43:12.603Z,75.90
2022-12-27T04:45:59.939Z,75.65
2022-12-27T04:48:48.777Z,75.74
2022-12-27T04:51:36.237Z,75.54
2022-12-27T04:54:25.165Z,75.84
2022-12-27T04:56:53.995Z,75.96
2022-12-27T04:59:41.264Z,76.01
2022-12-27T05:02:11.078Z,75.46
2022-12-27T05:04:41.058Z,75.06
2022-12-27T05:07:31.321Z,75.13
2022-12-27T05:10:20.675Z,75.36
2022-12-27T05:13:08.046Z,75.57
2022-12-27T05:15:36.927Z,75.92
2022-12-27T05:18:05.876Z,75.71
2022-12-27T05:20:35.884Z,75.78
2022-12-27T05:23:23.241Z,75.37
2022-12-27T05:25:53.410Z,75.20
2022-12-27T05:28:22.319Z,75.33
2022-12-27T05:30:51.342Z,75.77
2022-12-27T05:33:20.168Z,75.71
2022-12-27T05:35:48.969Z,76.01
2022-12-27T05:38:17.802Z,75.50
2022-12-27T05:40:46.692Z,75.82
2022-12-27T05:43:16.229Z,75.67
2022-12-27T05:45:45.023Z,75.85
2022-12-27T05:48:13.984Z,76.21
2022-12-27T05:50:42.827Z,76.36
2022-12-27T05:53:12.914Z,75.71
2022-12-27T05:55:42.069Z,75.81
2022-12-27T05:58:10.833Z,76.09
2022-12-27T06:00:40.397Z,76.06
2022-12-27T06:03:09.536Z,76.13
2022-12-27T06:05:38.765Z,76.21
2022-12-27T06:08:07.578Z,76.51
2022-12-27T06:10:37.014Z,76.92
2022-12-27T06:13:06.186Z,76.32
2022-12-27T06:15:35.189Z,76.58
2022-12-27T06:18:07.247Z,76.13
2022-12-27T06:20:36.129Z,75.99
2022-12-27T06:23:05.128Z,75.88
2022-12-27T06:25:33.931Z,75.95
2022-12-27T06:28:02.744Z,75.96
2022-12-27T06:30:35.989Z,75.88
2022-12-27T06:33:05.267Z,76.53
2022-12-27T06:35:34.061Z,76.67
2022-12-27T06:38:02.925Z,76.44
2022-12-27T06:40:31.810Z,76.54
2022-12-27T06:43:00.662Z,76.42
2022-12-27T06:45:29.552Z,76.53
2022-12-27T06:47:58.531Z,76.47
2022-12-27T06:50:27.526Z,76.68
2022-12-27T06:52:56.758Z,76.65
2022-12-27T06:55:25.637Z,76.69
2022-12-27T06:57:55.419Z,76.42
2022-12-27T07:00:24.411Z,76.39
2022-12-27T07:02:54.370Z,76.56
2022-12-27T07:05:23.462Z,76.06
2022-12-27T07:07:54.522Z,76.14
2022-12-27T07:10:23.504Z,76.33
2022-12-27T07:12:52.278Z,76.85
2022-12-27T07:15:21.309Z,76.55
2022-12-27T07:17:50.482Z,76.52
2022-12-27T07:20:19.504Z,76.78
2022-12-27T07:22:48.446Z,76.79
2022-12-27T07:25:17.338Z,77.04
2022-12-27T07:27:46.163Z,76.97
2022-12-27T07:30:15.068Z,77.15
2022-12-27T07:32:43.895Z,76.96
2022-12-27T07:35:12.822Z,76.80
2022-12-27T07:37:41.678Z,76.70
2022-12-27T07:40:10.915Z,76.85
2022-12-27T07:42:40.960Z,76.70
2022-12-27T07:45:10.360Z,76.86
2022-12-27T07:47:39.316Z,77.03
2022-12-27T07:50:08.541Z,76.88
2022-12-27T07:52:37.377Z,76.61
2022-12-27T07:55:06.776Z,76.66
2022-12-27T07:57:35.696Z,77.00
2022-12-27T08:00:06.804Z,77.10
2022-12-27T08:02:41.054Z,77.02
2022-12-27T08:05:10.743Z,77.04
2022-12-27T08:07:41.316Z,77.06
2022-12-27T08:10:11.443Z,77.09
2022-12-27T08:12:41.664Z,77.13
2022-12-27T08:15:12.094Z,77.11
2022-12-27T08:17:41.098Z,77.07
2022-12-27T08:20:15.188Z,76.98
2022-12-27T08:22:44.017Z,77.19
2022-12-27T08:25:12.937Z,77.00
2022-12-27T08:27:41.963Z,77.10
2022-12-27T08:30:11.331Z,77.18
2022-12-27T08:32:40.160Z,77.37
2022-12-27T08:35:41.807Z,77.68
2022-12-27T08:37:58.252Z,77.70
2022-12-27T08:40:28.565Z,77.63
2022-12-27T08:42:57.511Z,77.48
2022-12-27T08:45:26.328Z,77.65
2022-12-27T08:48:00.308Z,77.59
2022-12-27T08:50:30.144Z,77.53
2022-12-27T08:53:03.438Z,77.33
2022-12-27T08:55:32.955Z,77.49
2022-12-27T08:58:06.980Z,77.56
2022-12-27T09:00:42.065Z,77.88
2022-12-27T09:03:11.838Z,77.37
2022-12-27T09:05:42.185Z,77.98
2022-12-27T09:08:12.412Z,78.00
2022-12-27T09:10:41.271Z,77.60
2022-12-27T09:13:10.159Z,77.39
2022-12-27T09:15:39.702Z,77.62
2022-12-27T09:18:08.551Z,77.43
2022-12-27T09:20:38.559Z,77.64
2022-12-27T09:23:07.496Z,77.72
2022-12-27T09:25:36.525Z,77.93
2022-12-27T09:28:05.555Z,77.75
2022-12-27T09:30:34.504Z,77.90
2022-12-27T09:33:03.336Z,77.65
2022-12-27T09:35:38.320Z,77.78
2022-12-27T09:38:07.988Z,78.02
2022-12-27T09:40:37.613Z,77.86
2022-12-27T09:43:21.013Z,77.99
2022-12-27T09:45:57.601Z,77.61
2022-12-27T09:48:39.735Z,78.15
2022-12-27T09:51:44.091Z,78.00
2022-12-27T09:54:24.572Z,77.93
2022-12-27T09:57:18.993Z,77.92
2022-12-27T09:59:49.038Z,78.04
2022-12-27T10:02:25.115Z,77.66
2022-12-27T10:05:19.682Z,78.04
2022-12-27T10:07:46.410Z,77.85
2022-12-27T10:10:42.282Z,77.95
2022-12-27T10:13:30.333Z,77.76
2022-12-27T10:16:07.932Z,77.71
2022-12-27T10:19:11.878Z,77.62
2022-12-27T10:21:57.001Z,78.03
2022-12-27T10:24:46.579Z,78.39
2022-12-27T10:27:24.806Z,78.11
2022-12-27T10:29:57.271Z,78.31
2022-12-27T10:32:26.942Z,78.24
2022-12-27T10:35:00.991Z,78.45
2022-12-27T10:37:32.286Z,78.42
2022-12-27T10:40:16.432Z,78.56
2022-12-27T10:43:05.562Z,78.49
2022-12-27T10:45:39.827Z,78.45
2022-12-27T10:48:20.936Z,78.03
2022-12-27T10:50:55.874Z,78.55
2022-12-27T10:53:41.414Z,78.22
2022-12-27T10:56:12.240Z,78.17
2022-12-27T10:58:58.189Z,78.09
2022-12-27T11:01:31.236Z,78.13
2022-12-27T11:04:20.092Z,78.52
2022-12-27T11:06:52.549Z,78.22
2022-12-27T11:09:34.722Z,78.58
2022-12-27T11:12:24.784Z,78.61
2022-12-27T11:15:16.333Z,78.44
2022-12-27T11:18:11.102Z,78.82
2022-12-27T11:20:45.533Z,78.58
2022-12-27T11:23:20.139Z,78.80
2022-12-27T11:25:49.033Z,78.32
2022-12-27T11:28:38.502Z,78.49
2022-12-27T11:31:19.838Z,78.43
2022-12-27T11:33:51.896Z,78.54
2022-12-27T11:36:49.049Z,78.72
2022-12-27T11:39:52.483Z,78.86
2022-12-27T11:42:40.200Z,78.53
2022-12-27T11:45:22.251Z,78.57
2022-12-27T11:48:04.059Z,78.78
2022-12-27T11:51:03.019Z,78.83
2022-12-27T11:54:15.785Z,79.16
2022-12-27T11:57:25.436Z,79.10
2022-12-27T12:00:23.183Z,78.82
2022-12-27T12:02:58.937Z,78.75
2022-12-27T12:05:46.056Z,78.75
2022-12-27T12:08:15.103Z,79.32
2022-12-27T12:11:21.363Z,79.12
2022-12-27T12:14:11.587Z,78.96
2022-12-27T12:16:52.637Z,78.92
2022-12-27T12:19:49.594Z,79.42
2022-12-27T12:22:36.476Z,78.83
2022-12-27T12:25:24.343Z,79.18
2022-12-27T12:28:57.036Z,78.95
2022-12-27T12:31:22.164Z,79.33
2022-12-27T12:34:04.855Z,79.11
2022-12-27T12:36:54.102Z,79.19
2022-12-27T12:39:35.230Z,79.21
2022-12-27T12:42:16.632Z,78.83
2022-12-27T12:44:58.267Z,78.72
2022-12-27T12:48:03.609Z,79.33
2022-12-27T12:51:17.753Z,79.25
2022-12-27T12:54:03.496Z,78.99
2022-12-27T12:57:08.634Z,79.21
2022-12-27T13:00:10.100Z,79.11
2022-12-27T13:03:23.505Z,78.95
2022-12-27T13:06:13.028Z,79.20
2022-12-27T13:08:44.826Z,79.28
2022-12-27T13:11:32.164Z,79.57
2022-12-27T13:14:39.258Z,79.27
2022-12-27T13:17:32.603Z,79.06
2022-12-27T13:20:35.166Z,79.52
2022-12-27T13:23:58.203Z,79.26
2022-12-27T13:26:47.728Z,79.00
2022-12-27T13:29:50.497Z,79.50
2022-12-27T13:32:37.950Z,79.69
2022-12-27T13:35:42.238Z,79.45
2022-12-27T13:38:35.980Z,79.55
2022-12-27T13:41:17.073Z,79.54
2022-12-27T13:44:10.578Z,79.36
2022-12-27T13:46:50.363Z,79.53
2022-12-27T13:49:39.390Z,79.91
2022-12-27T13:52:52.213Z,79.15
2022-12-27T13:55:36.607Z,79.14
2022-12-27T13:58:35.980Z,79.28
2022-12-27T14:01:23.963Z,79.15
2022-12-27T14:04:01.850Z,79.64
2022-12-27T14:06:33.905Z,79.78
2022-12-27T14:09:11.778Z,79.51
2022-12-27T14:12:06.766Z,79.42
2022-12-27T14:14:40.002Z,80.02
2022-12-27T14:17:20.810Z,79.95
2022-12-27T14:19:58.841Z,79.65
2022-12-27T14:22:27.681Z,79.70
2022-12-27T14:25:02.377Z,79.53
2022-12-27T14:27:59.405Z,79.76
2022-12-27T14:30:46.744Z,79.67
2022-12-27T14:33:46.404Z,79.81
2022-12-27T14:36:36.712Z,79.37
2022-12-27T14:39:21.612Z,79.31
2022-12-27T14:42:08.783Z,79.33
2022-12-27T14:45:01.921Z,79.09
2022-12-27T14:48:05.634Z,79.45
2022-12-27T14:51:01.923Z,79.38
2022-12-27T14:54:07.516Z,79.83
2022-12-27T14:56:56.253Z,79.71
2022-12-27T14:59:46.317Z,80.03
2022-12-27T15:02:16.241Z,79.66
2022-12-27T15:05:08.569Z,79.95
2022-12-27T15:07:37.389Z,79.60
2022-12-27T15:10:09.227Z,79.67
2022-12-27T15:12:47.156Z,79.93
2022-12-27T15:15:21.726Z,79.68
2022-12-27T15:18:06.818Z,79.72
2022-12-27T15:20:44.087Z,79.42
2022-12-27T15:23:25.099Z,79.48
2022-12-27T15:26:15.494Z,79.50
2022-12-27T15:28:47.310Z,79.55
2022-12-27T15:31:28.490Z,79.27
2022-12-27T15:34:15.624Z,79.78
2022-12-27T15:36:48.224Z,79.93
2022-12-27T15:39:35.105Z,79.35
2022-12-27T15:42:22.616Z,79.64
2022-12-27T15:45:09.511Z,79.42
2022-12-27T15:47:56.435Z,79.70
2022-12-27T15:50:43.980Z,79.71
2022-12-27T15:53:37.178Z,79.63
2022-12-27T15:56:18.115Z,79.40
2022-12-27T15:59:25.386Z,79.49
2022-12-27T16:02:39.424Z,79.66
2022-12-27T16:05:32.922Z,79.61
2022-12-27T16:08:04.745Z,79.90
2022-12-27T16:10:36.116Z,79.83
2022-12-27T16:13:11.200Z,79.91
2022-12-27T16:15:48.455Z,80.25
2022-12-27T16:18:20.505Z,80.04
2022-12-27T16:20:56.784Z,80.25
2022-12-27T16:23:31.298Z,80.13
2022-12-27T16:26:08.831Z,80.27
2022-12-27T16:28:38.817Z,80.00
2022-12-27T16:31:12.852Z,80.24
2022-12-27T16:33:43.030Z,80.04
2022-12-27T16:36:20.146Z,80.19
2022-12-27T16:39:01.937Z,79.74
2022-12-27T16:41:55.813Z,80.20
2022-12-27T16:44:24.710Z,80.12
2022-12-27T16:47:15.055Z,80.02
2022-12-27T16:50:26.635Z,79.53
2022-12-27T16:53:26.175Z,79.62
2022-12-27T16:56:13.121Z,79.64
2022-12-27T16:58:41.998Z,79.63
2022-12-27T17:01:27.233Z,79.66
2022-12-27T17:04:00.123Z,80.00
2022-12-27T17:06:33.596Z,80.21
2022-12-27T17:09:09.810Z,80.08
2022-12-27T17:11:50.950Z,79.96
2022-12-27T17:14:25.950Z,79.96
2022-12-27T17:16:58.999Z,80.02
2022-12-27T17:20:00.510Z,79.89
2022-12-27T17:22:34.713Z,80.19
2022-12-27T17:25:05.162Z,79.72
2022-12-27T17:27:52.191Z,80.05
2022-12-27T17:31:01.201Z,79.98
2022-12-27T17:33:32.967Z,79.53
2022-12-27T17:36:19.937Z,79.39
2022-12-27T17:38:51.545Z,79.48
2022-12-27T17:41:46.233Z,79.62
2022-12-27T17:44:39.255Z,79.77
2022-12-27T17:47:29.899Z,79.67
2022-12-27T17:50:04.080Z,79.63
2022-12-27T17:52:51.801Z,79.81
2022-12-27T17:55:45.709Z,80.04
2022-12-27T17:58:19.509Z,79.43
2022-12-27T18:01:02.185Z,79.52
2022-12-27T18:03:43.724Z,79.66
2022-12-27T18:06:13.332Z,79.56
2022-12-27T18:08:42.977Z,79.92
2022-12-27T18:11:16.225Z,79.55
2022-12-27T18:13:54.369Z,79.54
2022-12-27T18:16:34.557Z,79.34
2022-12-27T18:19:03.992Z,79.39
2022-12-27T18:21:33.130Z,79.84
2022-12-27T18:24:02.055Z,79.65
2022-12-27T18:26:39.589Z,79.39
2022-12-27T18:29:12.964Z,79.50
2022-12-27T18:31:53.755Z,79.31
2022-12-27T18:34:28.658Z,79.63
2022-12-27T18:37:05.700Z,79.38
2022-12-27T18:39:41.205Z,79.27
2022-12-27T18:42:41.844Z,79.54
2022-12-27T18:45:23.525Z,79.42
2022-12-27T18:47:55.148Z,79.63
2022-12-27T18:50:27.253Z,79.41
2022-12-27T18:53:08.012Z,79.26
2022-12-27T18:55:37.617Z,79.63
2022-12-27T18:58:20.421Z,79.40
2022-12-27T19:01:27.280Z,79.50
2022-12-27T19:04:23.451Z,79.72
2022-12-27T19:06:55.200Z,79.59
2022-12-27T19:09:29.821Z,79.59
2022-12-27T19:12:06.194Z,79.41
2022-12-27T19:14:46.911Z,79.41
2022-12-27T19:17:31.096Z,79.37
2022-12-27T19:20:06.867Z,79.60
2022-12-27T19:22:52.859Z,79.46
2022-12-27T19:25:28.437Z,79.74
2022-12-27T19:28:12.300Z,79.54
2022-12-27T19:30:48.596Z,79.83
2022-12-27T19:33:29.989Z,79.64
2022-12-27T19:35:59.742Z,79.44
2022-12-27T19:38:30.778Z,79.49
2022-12-27T19:41:03.764Z,79.44
2022-12-27T19:43:41.194Z,79.78
2022-12-27T19:46:13.969Z,79.98
2022-12-27T19:48:43.016Z,79.65
2022-12-27T19:51:17.135Z,79.46
2022-12-27T19:53:55.430Z,79.58
2022-12-27T19:56:26.685Z,79.50
2022-12-27T19:58:55.493Z,80.23
2022-12-27T20:01:25.495Z,79.79
2022-12-27T20:03:54.698Z,79.78
2022-12-27T20:06:28.123Z,79.88
2022-12-27T20:08:57.226Z,80.21
2022-12-27T20:11:28.383Z,80.05
2022-12-27T20:13:57.284Z,80.05
2022-12-27T20:16:26.483Z,79.99
2022-12-27T20:18:55.501Z,79.85
2022-12-27T20:21:24.624Z,79.58
2022-12-27T20:23:53.464Z,79.71
2022-12-27T20:26:24.874Z,79.51
2022-12-27T20:28:54.415Z,79.95
2022-12-27T20:31:23.495Z,79.61
2022-12-27T20:33:56.540Z,79.75
2022-12-27T20:36:25.581Z,79.95
2022-12-27T20:38:54.433Z,79.74
2022-12-27T20:41:23.552Z,79.83
2022-12-27T20:43:59.388Z,79.83
2022-12-27T20:46:28.448Z,79.69
2022-12-27T20:48:57.678Z,80.01
2022-12-27T20:51:28.788Z,79.70
2022-12-27T20:53:59.210Z,80.25
2022-12-27T20:56:28.687Z,79.73
2022-12-27T20:58:58.007Z,79.70
2022-12-27T21:01:28.053Z,80.11
2022-12-27T21:03:58.022Z,79.99
2022-12-27T21:06:29.690Z,79.81
2022-12-27T21:08:59.176Z,80.24
2022-12-27T21:11:34.193Z,80.17
2022-12-27T21:14:04.826Z,80.27
2022-12-27T21:16:35.442Z,80.47
2022-12-27T21:19:05.952Z,80.02
2022-12-27T21:21:37.885Z,80.07
2022-12-27T21:24:08.672Z,80.05
2022-12-27T21:26:39.886Z,80.04
2022-12-27T21:29:10.416Z,80.58
2022-12-27T21:31:39.522Z,80.18
2022-12-27T21:34:08.519Z,80.10
2022-12-27T21:36:38.903Z,80.53
2022-12-27T21:39:08.155Z,80.40
2022-12-27T21:41:39.530Z,80.55
2022-12-27T21:44:08.527Z,80.10
2022-12-27T21:46:40.001Z,80.49
2022-12-27T21:49:13.823Z,80.27
2022-12-27T21:51:43.881Z,80.33
2022-12-27T21:54:14.378Z,80.17
2022-12-27T21:56:43.334Z,80.54
2022-12-27T21:59:12.603Z,80.34
2022-12-27T22:01:50.045Z,80.40
2022-12-27T22:04:22.137Z,80.42
2022-12-27T22:06:51.337Z,80.70
2022-12-27T22:09:20.339Z,80.81
2022-12-27T22:11:49.480Z,80.49
2022-12-27T22:14:23.324Z,80.54
2022-12-27T22:16:54.018Z,80.41
2022-12-27T22:19:22.960Z,80.31
2022-12-27T22:21:51.805Z,80.41
2022-12-27T22:24:20.573Z,80.57
2022-12-27T22:26:50.660Z,80.14
2022-12-27T22:29:19.940Z,80.27
2022-12-27T22:31:48.753Z,80.35
2022-12-27T22:34:17.568Z,80.21
2022-12-27T22:36:46.401Z,80.39
2022-12-27T22:39:15.323Z,80.26
2022-12-27T22:41:44.676Z,80.73
2022-12-27T22:44:15.695Z,80.17
2022-12-27T22:47:15.747Z,80.41
2022-12-27T22:49:33.359Z,80.71
2022-12-27T22:52:02.286Z,80.32
2022-12-27T22:55:03.380Z,80.27
2022-12-27T22:57:19.928Z,80.23
2022-12-27T22:59:48.722Z,80.22
2022-12-27T23:02:18.421Z,80.59
2022-12-27T23:04:47.683Z,80.30
2022-12-27T23:07:20.522Z,80.40
2022-12-27T23:09:49.289Z,80.60
2022-12-27T23:12:18.014Z,80.04
2022-12-27T23:14:46.853Z,80.58
2022-12-27T23:17:15.792Z,80.43
2022-12-27T23:19:44.634Z,80.63
2022-12-27T23:22:13.659Z,80.86
2022-12-27T23:24:42.465Z,80.50
2022-12-27T23:27:11.393Z,80.34
2022-12-27T23:29:40.314Z,80.85
2022-12-27T23:32:09.280Z,80.67
2022-12-27T23:34:38.098Z,80.79
2022-12-27T23:37:06.916Z,80.60
2022-12-27T23:39:35.859Z,80.58
2022-12-27T23:42:04.795Z,80.65
2022-12-27T23:44:34.933Z,80.52
2022-12-27T23:47:06.018Z,80.39
2022-12-27T23:49:35.299Z,80.46
2022-12-27T23:52:04.180Z,80.53
2022-12-27T23:54:33.104Z,80.56
2022-12-27T23:57:19.930Z,80.94
2022-12-27T23:59:49.949Z,80.60
